createdAt,value
2022-08-18T00:00:12.347Z,99524.62
2022-08-18T00:01:17.505Z,99517.98
2022-08-18T00:02:30.470Z,99523.80
2022-08-18T00:03:56.109Z,99517.73
2022-08-18T00:04:49.767Z,99519.80
2022-08-18T00:05:49.863Z,99523.72
2022-08-18T00:06:53.348Z,99527.72
2022-08-18T00:07:56.882Z,99526.03
2022-08-18T00:09:03.642Z,99531.01
2022-08-18T00:10:07.821Z,99524.12
2022-08-18T00:11:18.586Z,99527.08
2022-08-18T00:12:36.970Z,99519.98
2022-08-18T00:13:42.323Z,99528.11
2022-08-18T00:14:48.476Z,99522.84
2022-08-18T00:15:53.615Z,99528.45
2022-08-18T00:16:57.534Z,99527.22
2022-08-18T00:18:01.013Z,99531.48
2022-08-18T00:19:09.256Z,99525.88
2022-08-18T00:20:13.720Z,99525.04
2022-08-18T00:21:21.966Z,99524.78
2022-08-18T00:22:28.202Z,99524.95
2022-08-18T00:23:40.153Z,99530.20
2022-08-18T00:24:48.487Z,99532.49
2022-08-18T00:25:51.512Z,99529.55
2022-08-18T00:26:55.436Z,99531.66
2022-08-18T00:28:01.451Z,99528.72
2022-08-18T00:29:04.411Z,99534.49
2022-08-18T00:30:12.113Z,99531.40
2022-08-18T00:31:15.868Z,99526.83
2022-08-18T00:32:24.260Z,99532.49
2022-08-18T00:33:28.894Z,99524.14
2022-08-18T00:34:36.007Z,99525.79
2022-08-18T00:35:40.605Z,99522.89
2022-08-18T00:36:43.751Z,99523.67
2022-08-18T00:37:50.164Z,99519.55
2022-08-18T00:38:57.957Z,99522.89
2022-08-18T00:40:05.142Z,99526.23
2022-08-18T00:41:07.765Z,99515.16
2022-08-18T00:42:29.891Z,99522.45
2022-08-18T00:44:41.579Z,99525.82
2022-08-18T00:45:48.118Z,99515.16
2022-08-18T00:46:53.771Z,99515.55
2022-08-18T00:47:57.267Z,99513.30
2022-08-18T00:49:00.999Z,99518.26
2022-08-18T00:50:05.963Z,99511.75
2022-08-18T00:51:14.526Z,99513.66
2022-08-18T00:52:19.562Z,99516.10
2022-08-18T00:53:30.077Z,99515.27
2022-08-18T00:54:38.924Z,99515.27
2022-08-18T00:55:54.074Z,99514.43
2022-08-18T00:57:03.545Z,99517.91
2022-08-18T00:58:13.898Z,99515.39
2022-08-18T00:59:33.618Z,99519.09
2022-08-18T01:00:46.134Z,99517.58
2022-08-18T01:01:52.073Z,99519.73
2022-08-18T01:03:06.439Z,99517.12
2022-08-18T01:04:19.749Z,99515.48
2022-08-18T01:05:54.932Z,99512.20
2022-08-18T01:07:08.072Z,99511.71
2022-08-18T01:08:29.087Z,99517.43
2022-08-18T01:09:31.813Z,99502.46
2022-08-18T01:10:37.346Z,99506.54
2022-08-18T01:11:41.161Z,99513.17
2022-08-18T01:12:47.278Z,99517.28
2022-08-18T01:13:51.679Z,99510.73
2022-08-18T01:14:55.818Z,99503.64
2022-08-18T01:16:05.906Z,99513.27
2022-08-18T01:17:29.918Z,99513.89
2022-08-18T01:18:54.542Z,99515.56
2022-08-18T01:20:18.532Z,99515.37
2022-08-18T01:21:46.676Z,99513.17
2022-08-18T01:23:16.915Z,99512.41
2022-08-18T01:24:27.074Z,99508.67
2022-08-18T01:25:50.921Z,99515.48
2022-08-18T01:27:00.070Z,99514.84
2022-08-18T01:28:06.558Z,99522.04
2022-08-18T01:29:18.686Z,99515.98
2022-08-18T01:30:26.288Z,99525.83
2022-08-18T01:31:54.281Z,99519.67
2022-08-18T01:32:48.614Z,99518.83
2022-08-18T01:33:52.585Z,99522.18
2022-08-18T01:35:03.597Z,99523.59
2022-08-18T01:36:17.090Z,99525.91
2022-08-18T01:37:27.043Z,99525.77
2022-08-18T01:38:33.675Z,99524.09
2022-08-18T01:41:23.344Z,99530.55
2022-08-18T01:41:24.808Z,99524.73
2022-08-18T01:41:54.662Z,99527.20
2022-08-18T01:43:03.197Z,99520.58
2022-08-18T01:44:09.886Z,99518.45
2022-08-18T01:45:18.816Z,99526.61
2022-08-18T01:46:23.791Z,99524.36
2022-08-18T01:47:30.375Z,99524.31
2022-08-18T01:48:41.222Z,99537.61
2022-08-18T02:15:02.686Z,99535.33
2022-08-18T02:16:08.081Z,99538.21
2022-08-18T02:17:13.153Z,99536.34
2022-08-18T02:18:41.507Z,99527.59
2022-08-18T02:20:48.933Z,99531.59
2022-08-18T02:21:52.213Z,99529.09
2022-08-18T02:22:59.196Z,99528.34
2022-08-18T02:24:04.143Z,99528.34
2022-08-18T02:25:11.199Z,99528.98
2022-08-18T02:26:19.970Z,99533.46
2022-08-18T02:27:24.437Z,99529.27
2022-08-18T02:28:30.760Z,99529.64
2022-08-18T02:29:35.595Z,99526.76
2022-08-18T02:30:40.254Z,99529.09
2022-08-18T02:31:43.374Z,99537.50
2022-08-18T02:32:50.314Z,99537.50
2022-08-18T02:33:58.854Z,99536.38
2022-08-18T02:35:04.482Z,99534.98
2022-08-18T02:36:11.622Z,99537.84
2022-08-18T02:37:18.439Z,99535.70
2022-08-18T02:38:21.457Z,99530.89
2022-08-18T02:39:26.531Z,99527.34
2022-08-18T02:40:37.055Z,99530.61
2022-08-18T02:41:40.930Z,99532.47
2022-08-18T02:42:48.195Z,99529.67
2022-08-18T02:43:51.625Z,99530.80
2022-08-18T02:44:59.914Z,99527.63
2022-08-18T02:46:04.696Z,99530.08
2022-08-18T02:47:11.685Z,99528.00
2022-08-18T02:48:15.482Z,99527.81
2022-08-18T02:49:19.029Z,99526.23
2022-08-18T02:50:24.518Z,99528.59
2022-08-18T02:51:27.912Z,99525.77
2022-08-18T02:52:33.782Z,99531.10
2022-08-18T02:53:39.579Z,99533.15
2022-08-18T02:54:44.872Z,99528.22
2022-08-18T02:55:49.673Z,99535.35
2022-08-18T02:56:54.400Z,99532.00
2022-08-18T02:57:58.249Z,99531.34
2022-08-18T02:59:08.752Z,99524.27
2022-08-18T03:00:18.775Z,99535.35
2022-08-18T03:01:26.651Z,99527.25
2022-08-18T03:02:35.986Z,99533.79
2022-08-18T03:03:40.032Z,99533.20
2022-08-18T03:04:43.931Z,99538.06
2022-08-18T03:05:49.307Z,99537.33
2022-08-18T03:06:53.629Z,99536.67
2022-08-18T03:07:57.260Z,99539.64
2022-08-18T03:09:02.517Z,99543.94
2022-08-18T03:10:32.350Z,99538.06
2022-08-18T03:11:13.016Z,99536.67
2022-08-18T03:12:17.243Z,99541.68
2022-08-18T03:13:25.168Z,99547.19
2022-08-18T03:14:28.408Z,99543.75
2022-08-18T03:15:40.569Z,99539.92
2022-08-18T03:16:54.877Z,99549.59
2022-08-18T03:17:54.000Z,99547.17
2022-08-18T03:18:58.840Z,99548.02
2022-08-18T03:20:30.796Z,99543.75
2022-08-18T03:21:30.384Z,99541.67
2022-08-18T03:22:35.992Z,99545.97
2022-08-18T03:23:41.920Z,99546.80
2022-08-18T03:24:45.776Z,99545.86
2022-08-18T03:25:50.973Z,99555.64
2022-08-18T03:26:59.652Z,99559.66
2022-08-18T03:28:07.900Z,99565.60
2022-08-18T03:29:14.859Z,99562.72
2022-08-18T03:30:19.941Z,99559.30
2022-08-18T03:31:28.141Z,99562.16
2022-08-18T03:32:32.392Z,99555.84
2022-08-18T03:33:39.585Z,99554.55
2022-08-18T03:34:43.137Z,99560.80
2022-08-18T03:35:46.710Z,99567.21
2022-08-18T03:36:51.659Z,99569.26
2022-08-18T03:38:00.688Z,99566.45
2022-08-18T03:39:10.056Z,99565.06
2022-08-18T03:40:14.328Z,99563.73
2022-08-18T03:41:57.094Z,99574.63
2022-08-18T03:42:35.932Z,99569.98
2022-08-18T03:43:51.424Z,99574.91
2022-08-18T03:44:46.282Z,99577.67
2022-08-18T03:45:50.180Z,99569.52
2022-08-18T03:46:54.850Z,99575.53
2022-08-18T03:47:59.372Z,99573.14
2022-08-18T03:49:04.193Z,99577.73
2022-08-18T03:50:10.046Z,99578.67
2022-08-18T03:51:18.724Z,99572.49
2022-08-18T03:52:27.748Z,99578.23
2022-08-18T03:53:34.113Z,99580.94
2022-08-18T03:54:41.161Z,99581.03
2022-08-18T04:21:07.012Z,99578.80
2022-08-18T04:22:10.586Z,99577.02
2022-08-18T04:23:16.864Z,99576.28
2022-08-18T04:24:20.856Z,99575.20
2022-08-18T04:25:28.359Z,99577.77
2022-08-18T04:26:35.587Z,99569.42
2022-08-18T04:27:44.420Z,99578.51
2022-08-18T04:28:50.998Z,99576.75
2022-08-18T04:29:55.659Z,99569.37
2022-08-18T04:31:09.220Z,99565.80
2022-08-18T04:32:18.387Z,99568.35
2022-08-18T04:33:29.204Z,99573.77
2022-08-18T04:34:34.291Z,99567.78
2022-08-18T04:35:39.116Z,99570.94
2022-08-18T04:36:44.473Z,99572.46
2022-08-18T04:37:47.865Z,99566.02
2022-08-18T04:38:54.329Z,99575.92
2022-08-18T04:40:00.115Z,99580.38
2022-08-18T04:41:07.527Z,99578.98
2022-08-18T04:43:23.922Z,99576.66
2022-08-18T04:44:28.780Z,99571.45
2022-08-18T04:45:33.430Z,99573.94
2022-08-18T04:46:41.058Z,99580.41
2022-08-18T04:47:45.726Z,99576.00
2022-08-18T04:48:49.556Z,99582.06
2022-08-18T04:49:54.500Z,99584.34
2022-08-18T04:50:57.182Z,99578.59
2022-08-18T04:52:36.733Z,99594.25
2022-08-18T04:53:43.649Z,99584.28
2022-08-18T04:54:47.288Z,99589.45
2022-08-18T04:55:53.302Z,99592.32
2022-08-18T04:56:58.163Z,99593.09
2022-08-18T04:58:03.692Z,99596.48
2022-08-18T04:59:12.104Z,99590.89
2022-08-18T05:00:16.366Z,99593.91
2022-08-18T05:01:23.500Z,99603.03
2022-08-18T05:02:28.602Z,99598.95
2022-08-18T05:03:35.646Z,99595.06
2022-08-18T05:04:44.057Z,99603.50
2022-08-18T05:05:49.528Z,99595.61
2022-08-18T05:06:53.137Z,99617.24
2022-08-18T05:07:57.269Z,99629.37
2022-08-18T05:09:07.041Z,99631.28
2022-08-18T05:10:18.395Z,99640.25
2022-08-18T05:11:23.242Z,99644.79
2022-08-18T05:13:32.904Z,99654.60
2022-08-18T05:14:36.788Z,99655.84
2022-08-18T05:16:09.084Z,99652.91
2022-08-18T05:16:52.518Z,99640.39
2022-08-18T05:18:04.247Z,99639.19
2022-08-18T05:19:26.062Z,99644.20
2022-08-18T05:20:28.362Z,99653.46
2022-08-18T05:21:37.526Z,99653.46
2022-08-18T05:22:44.189Z,99653.19
2022-08-18T05:23:50.541Z,99637.45
2022-08-18T05:24:54.102Z,99632.33
2022-08-18T05:26:00.684Z,99629.91
2022-08-18T05:27:06.664Z,99629.31
2022-08-18T05:28:10.525Z,99626.64
2022-08-18T05:29:18.835Z,99627.70
2022-08-18T05:30:23.967Z,99625.97
2022-08-18T05:31:29.695Z,99624.61
2022-08-18T05:32:48.318Z,99622.55
2022-08-18T05:33:50.705Z,99627.59
2022-08-18T05:34:55.409Z,99628.50
2022-08-18T05:36:05.666Z,99626.58
2022-08-18T05:37:26.831Z,99629.10
2022-08-18T05:38:46.621Z,99631.50
2022-08-18T05:40:11.372Z,99629.35
2022-08-18T05:41:19.967Z,99633.30
2022-08-18T05:42:25.450Z,99628.72
2022-08-18T05:43:29.079Z,99619.59
2022-08-18T05:44:37.828Z,99617.19
2022-08-18T05:45:45.587Z,99615.20
2022-08-18T05:46:57.416Z,99609.11
2022-08-18T05:48:01.023Z,99605.02
2022-08-18T05:49:06.621Z,99591.73
2022-08-18T05:50:21.046Z,99597.50
2022-08-18T05:51:33.639Z,99594.73
2022-08-18T05:52:57.966Z,99595.40
2022-08-18T05:54:23.746Z,99585.20
2022-08-18T05:55:58.878Z,99593.18
2022-08-18T05:57:14.345Z,99590.86
2022-08-18T05:58:40.289Z,99594.70
2022-08-18T05:59:47.868Z,99589.00
2022-08-18T06:00:59.740Z,99588.72
2022-08-18T06:02:29.042Z,99589.34
2022-08-18T06:04:58.110Z,99594.06
2022-08-18T06:06:08.511Z,99592.71
2022-08-18T06:07:22.596Z,99597.82
2022-08-18T06:08:32.506Z,99590.92
2022-08-18T06:09:45.901Z,99590.98
2022-08-18T06:10:54.630Z,99592.73
2022-08-18T06:12:08.891Z,99593.92
2022-08-18T06:13:16.325Z,99591.39
2022-08-18T06:14:21.727Z,99602.83
2022-08-18T06:15:45.449Z,99601.97
2022-08-18T06:16:57.817Z,99599.42
2022-08-18T06:18:18.429Z,99598.55
2022-08-18T06:19:44.350Z,99600.66
2022-08-18T06:21:14.008Z,99599.50
2022-08-18T06:22:31.279Z,99613.70
2022-08-18T06:23:46.043Z,99608.21
2022-08-18T06:25:03.213Z,99604.00
2022-08-18T06:26:14.441Z,99612.11
2022-08-18T06:27:24.858Z,99605.42
2022-08-18T06:28:33.589Z,99609.68
2022-08-18T06:29:47.807Z,99609.45
2022-08-18T06:31:01.396Z,99612.97
2022-08-18T06:32:28.991Z,99613.37
2022-08-18T06:33:51.998Z,99612.84
2022-08-18T06:36:38.475Z,99615.64
2022-08-18T06:38:23.922Z,99613.37
2022-08-18T06:39:34.748Z,99612.83
2022-08-18T06:40:39.316Z,99610.05
2022-08-18T06:41:45.417Z,99611.13
2022-08-18T06:43:01.991Z,99605.80
2022-08-18T06:44:12.733Z,99614.41
2022-08-18T06:45:19.560Z,99627.30
2022-08-18T06:46:34.512Z,99632.55
2022-08-18T06:47:59.680Z,99636.48
2022-08-18T06:49:07.457Z,99653.98
2022-08-18T06:50:16.424Z,99662.20
2022-08-18T06:51:23.064Z,99672.61
2022-08-18T06:52:38.050Z,99684.36
2022-08-18T06:55:12.845Z,99691.45
2022-08-18T06:56:31.014Z,99691.45
2022-08-18T06:57:40.122Z,99695.83
2022-08-18T06:58:47.906Z,99707.41
2022-08-18T07:00:10.220Z,99695.74
2022-08-18T07:01:15.616Z,99709.68
2022-08-18T07:03:43.461Z,99705.52
2022-08-18T07:05:22.024Z,99709.80
2022-08-18T07:06:32.607Z,99716.39
2022-08-18T07:07:42.499Z,99713.48
2022-08-18T07:08:48.991Z,99710.47
2022-08-18T07:09:53.638Z,99718.28
2022-08-18T07:11:04.397Z,99720.18
2022-08-18T07:12:11.584Z,99722.33
2022-08-18T07:13:21.252Z,99719.42
2022-08-18T07:14:26.313Z,99722.38
2022-08-18T07:15:33.911Z,99707.70
2022-08-18T07:17:44.217Z,99720.67
2022-08-18T07:18:47.715Z,99721.61
2022-08-18T07:20:17.054Z,99724.44
2022-08-18T07:21:33.021Z,99718.05
2022-08-18T07:24:28.564Z,99716.16
2022-08-18T07:25:42.480Z,99718.66
2022-08-18T07:27:04.948Z,99717.77
2022-08-18T07:28:29.323Z,99713.33
2022-08-18T07:29:36.513Z,99717.53
2022-08-18T07:30:54.632Z,99715.41
2022-08-18T07:31:51.547Z,99711.56
2022-08-18T07:35:43.229Z,99721.63
2022-08-18T07:37:02.995Z,99724.22
2022-08-18T07:38:41.876Z,99723.13
2022-08-18T07:39:47.405Z,99726.00
2022-08-18T07:41:02.628Z,99728.31
2022-08-18T07:42:31.852Z,99723.06
2022-08-18T07:43:41.956Z,99730.39
2022-08-18T07:45:05.135Z,99730.39
2022-08-18T07:46:21.382Z,99737.59
2022-08-18T07:47:28.565Z,99729.16
2022-08-18T07:48:39.665Z,99730.45
2022-08-18T07:49:59.609Z,99730.37
2022-08-18T07:51:05.268Z,99731.02
2022-08-18T07:52:36.252Z,99728.94
2022-08-18T07:53:55.972Z,99734.92
2022-08-18T07:55:09.905Z,99738.46
2022-08-18T07:56:26.107Z,99746.45
2022-08-18T07:57:46.985Z,99735.36
2022-08-18T07:58:57.189Z,99742.42
2022-08-18T08:00:41.522Z,99733.58
2022-08-18T08:01:48.649Z,99737.90
2022-08-18T08:02:57.189Z,99736.30
2022-08-18T08:06:01.303Z,99727.66
2022-08-18T08:07:25.917Z,99718.16
2022-08-18T08:08:44.391Z,99724.91
2022-08-18T08:10:17.618Z,99714.20
2022-08-18T08:11:41.826Z,99714.75
2022-08-18T08:13:06.039Z,99710.34
2022-08-18T08:14:14.515Z,99715.31
2022-08-18T08:15:30.695Z,99703.23
2022-08-18T08:16:44.358Z,99705.45
2022-08-18T08:18:00.891Z,99699.38
2022-08-18T08:19:12.705Z,99692.19
2022-08-18T08:20:47.769Z,99702.13
2022-08-18T08:21:58.576Z,99684.20
2022-08-18T08:23:19.489Z,99696.61
2022-08-18T08:24:33.094Z,99703.56
2022-08-18T08:25:47.707Z,99691.75
2022-08-18T08:26:56.319Z,99687.20
2022-08-18T08:28:09.318Z,99684.75
2022-08-18T08:29:47.694Z,99672.55
2022-08-18T08:31:09.074Z,99679.45
2022-08-18T08:32:16.010Z,99671.28
2022-08-18T08:33:31.959Z,99670.05
2022-08-18T08:34:44.753Z,99675.45
2022-08-18T08:36:15.606Z,99681.30
2022-08-18T08:37:39.141Z,99672.55
2022-08-18T08:38:54.065Z,99663.72
2022-08-18T08:40:13.103Z,99674.19
2022-08-18T08:41:39.643Z,99684.88
2022-08-18T08:43:00.223Z,99678.77
2022-08-18T08:44:09.996Z,99685.11
2022-08-18T08:45:32.875Z,99688.69
2022-08-18T08:46:48.607Z,99679.64
2022-08-18T08:48:14.497Z,99684.36
2022-08-18T08:51:01.042Z,99679.88
2022-08-18T08:52:19.221Z,99677.66
2022-08-18T08:53:32.190Z,99674.27
2022-08-18T08:55:01.125Z,99682.83
2022-08-18T08:56:11.206Z,99684.92
2022-08-18T08:57:16.767Z,99690.20
2022-08-18T08:58:38.636Z,99695.51
2022-08-18T08:59:46.129Z,99688.38
2022-08-18T09:00:55.550Z,99698.20
2022-08-18T09:02:32.298Z,99682.80
2022-08-18T09:03:48.947Z,99687.84
2022-08-18T09:05:08.378Z,99692.81
2022-08-18T09:06:17.272Z,99695.03
2022-08-18T09:07:42.656Z,99684.28
2022-08-18T09:09:02.019Z,99684.03
2022-08-18T09:10:31.929Z,99692.84
2022-08-18T09:13:29.001Z,99695.72
2022-08-18T09:15:00.237Z,99686.05
2022-08-18T09:16:15.181Z,99706.22
2022-08-18T09:17:33.808Z,99703.41
2022-08-18T09:19:09.306Z,99706.43
2022-08-18T09:20:39.111Z,99698.42
2022-08-18T09:21:53.136Z,99706.94
2022-08-18T09:23:10.363Z,99700.75
2022-08-18T09:24:30.169Z,99699.56
2022-08-18T09:25:45.921Z,99691.16
2022-08-18T09:27:18.825Z,99695.39
2022-08-18T09:28:32.176Z,99682.86
2022-08-18T09:29:57.778Z,99679.63
2022-08-18T09:31:11.080Z,99685.05
2022-08-18T09:32:27.535Z,99679.34
2022-08-18T09:33:46.963Z,99677.00
2022-08-18T09:36:44.898Z,99671.53
2022-08-18T09:38:30.254Z,99671.78
2022-08-18T09:40:00.374Z,99668.20
2022-08-18T09:41:28.270Z,99681.13
2022-08-18T09:43:02.166Z,99680.81
2022-08-18T09:44:17.916Z,99675.33
2022-08-18T09:45:37.655Z,99684.44
2022-08-18T09:46:52.336Z,99679.43
2022-08-18T09:47:59.047Z,99673.98
2022-08-18T09:49:26.590Z,99667.66
2022-08-18T09:50:42.494Z,99671.28
2022-08-18T09:51:48.977Z,99659.16
2022-08-18T09:53:04.661Z,99670.47
2022-08-18T09:54:20.945Z,99656.28
2022-08-18T09:55:29.641Z,99662.20
2022-08-18T09:56:54.053Z,99667.27
2022-08-18T09:58:30.549Z,99654.66
2022-08-18T10:00:05.500Z,99660.10
2022-08-18T10:01:37.165Z,99672.64
2022-08-18T10:02:47.603Z,99665.13
2022-08-18T10:04:21.487Z,99661.95
2022-08-18T10:05:30.034Z,99667.28
2022-08-18T10:06:36.932Z,99671.41
2022-08-18T10:07:44.686Z,99672.50
2022-08-18T10:08:58.105Z,99677.59
2022-08-18T10:11:01.371Z,99678.45
2022-08-18T10:11:37.701Z,99675.38
2022-08-18T10:13:05.187Z,99685.51
2022-08-18T10:14:32.003Z,99669.17
2022-08-18T10:15:52.452Z,99671.50
2022-08-18T10:17:32.280Z,99672.31
2022-08-18T10:19:02.201Z,99681.29
2022-08-18T10:23:07.840Z,99663.73
2022-08-18T10:25:33.820Z,99670.95
2022-08-18T10:26:54.563Z,99672.54
2022-08-18T10:27:55.500Z,99677.53
2022-08-18T10:29:13.533Z,99673.37
2022-08-18T10:30:56.327Z,99678.76
2022-08-18T10:32:01.621Z,99663.47
2022-08-18T10:33:18.384Z,99677.34
2022-08-18T10:34:39.480Z,99671.80
2022-08-18T10:35:55.708Z,99679.80
2022-08-18T10:37:02.508Z,99674.59
2022-08-18T10:38:21.411Z,99673.01
2022-08-18T10:39:41.916Z,99674.40
2022-08-18T10:40:58.899Z,99681.14
2022-08-18T10:42:31.721Z,99674.23
2022-08-18T10:43:55.782Z,99666.73
2022-08-18T10:44:57.235Z,99668.80
2022-08-18T10:46:25.512Z,99663.21
2022-08-18T10:47:12.317Z,99661.55
2022-08-18T10:48:20.340Z,99668.34
2022-08-18T10:49:32.550Z,99669.94
2022-08-18T10:50:47.732Z,99671.98
2022-08-18T10:52:00.957Z,99666.69
2022-08-18T10:53:39.145Z,99663.36
2022-08-18T10:55:02.857Z,99662.32
2022-08-18T10:56:33.663Z,99658.06
2022-08-18T10:57:47.705Z,99665.80
2022-08-18T11:00:28.434Z,99671.39
2022-08-18T11:02:12.045Z,99670.31
2022-08-18T11:03:55.897Z,99662.00
2022-08-18T11:04:59.447Z,99664.08
2022-08-18T11:06:18.018Z,99670.37
2022-08-18T11:07:22.898Z,99668.92
2022-08-18T11:08:25.909Z,99662.91
2022-08-18T11:09:34.372Z,99666.44
2022-08-18T11:10:58.190Z,99664.05
2022-08-18T11:11:59.157Z,99674.20
2022-08-18T11:13:18.432Z,99675.80
2022-08-18T11:14:58.786Z,99674.23
2022-08-18T11:16:30.206Z,99674.59
2022-08-18T11:17:47.711Z,99672.97
2022-08-18T11:18:59.876Z,99671.49
2022-08-18T11:20:09.970Z,99668.49
2022-08-18T11:21:43.587Z,99675.76
2022-08-18T11:22:57.337Z,99667.21
2022-08-18T11:24:08.547Z,99672.86
2022-08-18T11:25:35.578Z,99676.45
2022-08-18T11:26:59.221Z,99669.17
2022-08-18T11:28:09.271Z,99666.72
2022-08-18T11:29:37.574Z,99658.14
2022-08-18T11:30:48.562Z,99663.47
2022-08-18T11:32:03.841Z,99671.92
2022-08-18T11:33:08.397Z,99661.12
2022-08-18T11:34:19.842Z,99667.77
2022-08-18T11:35:25.827Z,99656.05
2022-08-18T11:36:33.298Z,99662.78
2022-08-18T11:37:52.303Z,99661.02
2022-08-18T11:38:56.747Z,99654.78
2022-08-18T11:40:05.290Z,99664.91
2022-08-18T11:41:47.815Z,99650.41
2022-08-18T11:42:36.419Z,99647.41
2022-08-18T11:44:52.620Z,99647.12
2022-08-18T11:46:04.641Z,99646.81
2022-08-18T11:47:18.005Z,99654.36
2022-08-18T11:48:38.980Z,99655.38
2022-08-18T11:49:42.245Z,99650.64
2022-08-18T11:51:05.238Z,99654.69
2022-08-18T11:52:30.805Z,99649.81
2022-08-18T11:53:55.568Z,99644.47
2022-08-18T11:55:14.772Z,99646.16
2022-08-18T11:56:30.657Z,99647.50
2022-08-18T11:59:07.945Z,99641.94
2022-08-18T12:00:45.355Z,99641.14
2022-08-18T12:01:51.999Z,99648.16
2022-08-18T12:04:34.071Z,99636.08
2022-08-18T12:05:57.569Z,99643.38
2022-08-18T12:07:32.866Z,99644.88
2022-08-18T12:08:57.930Z,99642.11
2022-08-18T12:11:27.041Z,99628.67
2022-08-18T12:12:25.329Z,99633.08
2022-08-18T12:13:30.963Z,99634.30
2022-08-18T12:14:40.158Z,99633.19
2022-08-18T12:15:48.024Z,99630.70
2022-08-18T12:16:53.937Z,99631.67
2022-08-18T12:17:59.772Z,99637.63
2022-08-18T12:19:07.502Z,99635.54
2022-08-18T12:20:15.679Z,99630.30
2022-08-18T12:21:20.297Z,99636.05
2022-08-18T12:22:29.924Z,99628.48
2022-08-18T12:23:49.637Z,99628.38
2022-08-18T12:24:56.975Z,99638.68
2022-08-18T12:26:01.932Z,99635.53
2022-08-18T12:27:12.302Z,99640.80
2022-08-18T12:28:14.836Z,99627.36
2022-08-18T12:29:20.443Z,99641.59
2022-08-18T12:30:26.282Z,99644.17
2022-08-18T12:32:47.003Z,99639.06
2022-08-18T12:33:48.166Z,99647.30
2022-08-18T12:34:50.490Z,99640.97
2022-08-18T12:35:55.472Z,99643.72
2022-08-18T12:37:10.314Z,99644.70
2022-08-18T12:39:16.855Z,99647.03
2022-08-18T12:40:22.720Z,99641.72
2022-08-18T12:41:26.880Z,99636.27
2022-08-18T12:42:30.595Z,99644.38
2022-08-18T12:43:35.463Z,99635.48
2022-08-18T12:44:45.511Z,99635.79
2022-08-18T12:45:50.364Z,99631.67
2022-08-18T12:46:56.863Z,99634.70
2022-08-18T12:48:04.575Z,99641.13
2022-08-18T12:49:20.648Z,99634.81
2022-08-18T12:50:30.751Z,99650.24
2022-08-18T12:51:32.329Z,99644.28
2022-08-18T12:52:36.712Z,99636.73
2022-08-18T12:53:57.999Z,99644.17
2022-08-18T12:54:48.151Z,99633.98
2022-08-18T12:55:55.435Z,99638.47
2022-08-18T12:57:02.585Z,99637.89
2022-08-18T12:58:09.884Z,99631.30
2022-08-18T12:59:13.885Z,99631.67
2022-08-18T13:00:18.693Z,99632.33
2022-08-18T13:01:23.373Z,99629.32
2022-08-18T13:02:27.658Z,99626.62
2022-08-18T13:03:37.999Z,99623.08
2022-08-18T13:04:45.405Z,99628.13
2022-08-18T13:05:54.366Z,99628.13
2022-08-18T13:07:05.778Z,99615.84
2022-08-18T13:08:12.629Z,99620.14
2022-08-18T13:09:42.518Z,99627.67
2022-08-18T13:10:45.955Z,99616.44
2022-08-18T13:11:29.712Z,99612.86
2022-08-18T13:12:33.731Z,99617.16
2022-08-18T13:14:43.781Z,99614.66
2022-08-18T13:15:57.981Z,99616.83
2022-08-18T13:16:57.854Z,99613.53
2022-08-18T13:18:07.523Z,99608.77
2022-08-18T13:19:15.410Z,99608.20
2022-08-18T13:20:22.107Z,99615.09
2022-08-18T13:21:39.236Z,99615.77
2022-08-18T13:22:43.285Z,99613.94
2022-08-18T13:23:53.062Z,99600.47
2022-08-18T13:24:56.476Z,99609.09
2022-08-18T13:26:04.820Z,99611.95
2022-08-18T13:27:18.539Z,99612.27
2022-08-18T13:28:17.501Z,99613.86
2022-08-18T13:29:26.225Z,99610.03
2022-08-18T13:30:32.681Z,99614.34
2022-08-18T13:31:39.805Z,99609.67
2022-08-18T13:32:59.407Z,99605.43
2022-08-18T13:33:56.214Z,99610.92
2022-08-18T13:34:58.288Z,99606.18
2022-08-18T13:36:07.408Z,99612.70
2022-08-18T13:37:12.174Z,99609.45
2022-08-18T13:38:21.952Z,99606.45
2022-08-18T13:39:33.849Z,99596.59
2022-08-18T13:40:33.546Z,99597.60
2022-08-18T13:41:40.422Z,99600.86
2022-08-18T13:42:50.797Z,99606.41
2022-08-18T13:44:00.985Z,99606.77
2022-08-18T13:45:22.993Z,99611.91
2022-08-18T13:46:17.605Z,99610.61
2022-08-18T13:48:35.726Z,99604.72
2022-08-18T13:49:57.986Z,99609.38
2022-08-18T13:51:03.857Z,99614.53
2022-08-18T13:52:32.994Z,99613.12
2022-08-18T13:53:21.245Z,99610.20
2022-08-18T13:54:31.457Z,99610.23
2022-08-18T13:55:34.343Z,99614.41
2022-08-18T13:56:42.466Z,99618.77
2022-08-18T13:57:50.332Z,99618.05
2022-08-18T13:58:55.037Z,99616.94
2022-08-18T14:00:03.751Z,99618.85
2022-08-18T14:01:42.507Z,99621.43
2022-08-18T14:02:13.998Z,99623.38
2022-08-18T14:03:42.790Z,99624.26
2022-08-18T14:04:27.985Z,99631.89
2022-08-18T14:05:36.374Z,99630.53
2022-08-18T14:06:39.568Z,99627.70
2022-08-18T14:07:45.077Z,99638.97
2022-08-18T14:08:48.347Z,99629.04
2022-08-18T14:09:52.465Z,99633.91
2022-08-18T14:10:59.868Z,99636.56
2022-08-18T14:13:24.292Z,99640.55
2022-08-18T14:14:23.893Z,99643.30
2022-08-18T14:15:29.522Z,99643.27
2022-08-18T14:16:38.235Z,99646.23
2022-08-18T14:17:44.039Z,99641.17
2022-08-18T14:18:51.142Z,99651.70
2022-08-18T14:20:21.654Z,99647.16
2022-08-18T14:21:40.649Z,99641.70
2022-08-18T14:23:05.376Z,99642.63
2022-08-18T14:24:28.398Z,99650.19
2022-08-18T14:25:50.737Z,99642.37
2022-08-18T14:26:56.794Z,99649.58
2022-08-18T14:28:03.834Z,99652.28
2022-08-18T14:29:08.025Z,99653.62
2022-08-18T14:30:14.586Z,99651.13
2022-08-18T14:31:23.067Z,99650.08
2022-08-18T14:32:30.236Z,99651.66
2022-08-18T14:33:50.714Z,99641.63
2022-08-18T14:34:51.080Z,99645.38
2022-08-18T14:36:06.514Z,99642.37
2022-08-18T14:37:00.251Z,99645.59
2022-08-18T14:38:09.105Z,99637.77
2022-08-18T14:39:13.710Z,99635.73
2022-08-18T14:40:23.892Z,99639.64
2022-08-18T14:41:30.630Z,99636.77
2022-08-18T14:42:41.765Z,99639.10
2022-08-18T14:44:11.455Z,99640.34
2022-08-18T14:44:51.006Z,99647.91
2022-08-18T14:45:58.267Z,99650.36
2022-08-18T14:47:03.261Z,99653.84
2022-08-18T14:48:11.178Z,99651.86
2022-08-18T14:49:12.049Z,99660.83
2022-08-18T14:50:17.117Z,99655.88
2022-08-18T14:51:27.144Z,99656.00
2022-08-18T14:52:29.144Z,99655.29
2022-08-18T14:53:37.764Z,99657.48
2022-08-18T14:54:46.340Z,99648.86
2022-08-18T14:55:52.493Z,99659.82
2022-08-18T14:56:56.634Z,99654.34
2022-08-18T14:58:00.242Z,99654.92
2022-08-18T14:59:06.466Z,99656.84
2022-08-18T15:00:20.988Z,99656.16
2022-08-18T15:01:26.607Z,99663.00
2022-08-18T15:02:32.750Z,99662.17
2022-08-18T15:03:39.395Z,99667.16
2022-08-18T15:04:52.964Z,99654.09
2022-08-18T15:05:52.183Z,99657.77
2022-08-18T15:06:58.297Z,99669.88
2022-08-18T15:08:04.330Z,99668.23
2022-08-18T15:09:09.189Z,99661.42
2022-08-18T15:10:20.002Z,99663.59
2022-08-18T15:11:23.326Z,99664.57
2022-08-18T15:12:27.846Z,99670.30
2022-08-18T15:13:35.720Z,99679.78
2022-08-18T15:14:40.168Z,99664.66
2022-08-18T15:15:51.698Z,99664.47
2022-08-18T15:16:50.806Z,99663.09
2022-08-18T15:43:53.060Z,99676.86
2022-08-18T15:44:56.756Z,99674.80
2022-08-18T15:46:01.007Z,99678.42
2022-08-18T15:47:09.448Z,99672.29
2022-08-18T15:48:19.951Z,99677.28
2022-08-18T15:49:24.893Z,99664.31
2022-08-18T15:50:32.253Z,99666.32
2022-08-18T15:51:41.191Z,99668.57
2022-08-18T15:52:53.584Z,99662.98
2022-08-18T15:53:59.699Z,99670.08